Milledgeville, Ohio
Current Conditions -  °F | °C
As of 8:54 AM on Thursday 23 Oct 2014 (Local Time) from KILN Reporting Station
Haze Haze  
Wind Chill: 38°   Ceiling: Unl
Heat Index: 42°   Visibility: 4mi
Dew Point: 38°   Wind: 7mph
Humidity: 85%   Direction: 350°N
Pressure: 30.24"   Gusts: NA
Location:  39.59°N, 83.59°W
Report Text: KILN 231254Z AUTO 35006KT 4SM BR CLR 06/03 A3024 RMK AO2 SLP257 T00560033
Loading
Personal Weather Stations






























Interactive Weather Map
Tropical Storm Tracking
New forecast layout! Learn more

10-Day Weather Forecast

Advertisements
Track Severe Weather on mobile